Time;durP1;ratioP1;P1;durP2;ratioP2;P2;SDS_P1;SDS_P2;PMS_P1;PMS_P2;Temp;Humidity;BMP_temperature;BMP_pressure;BME280_temperature;BME280_humidity;BME280_pressure;Samples;Min_cycle;Max_cycle;Signal;HPM_P1;HPM_P2
2023/09/13 00:02:18;;;;;;;2.08;0.65;;;17.70;99.90;;;;;;4876526;29;20049;-76
2023/09/13 00:04:43;;;;;;;;;;;17.70;99.90;;;;;;4875599;29;20075;-76
2023/09/13 00:07:09;;;;;;;2.80;0.82;;;17.70;99.90;;;;;;4876689;29;20014;-76
2023/09/13 00:09:35;;;;;;;;;;;17.70;99.90;;;;;;4876615;29;20045;-76
2023/09/13 00:12:00;;;;;;;0.95;0.60;;;17.70;99.90;;;;;;4877165;29;20360;-76
2023/09/13 00:14:26;;;;;;;1.48;0.73;;;17.60;99.90;;;;;;4874190;29;20135;-76
2023/09/13 00:16:51;;;;;;;;;;;17.60;99.90;;;;;;4876650;29;20057;-76
2023/09/13 00:19:17;;;;;;;1.75;0.70;;;17.60;99.90;;;;;;4876017;29;19923;-76
2023/09/13 00:21:43;;;;;;;;;;;17.60;99.90;;;;;;4877468;29;20513;-76
2023/09/13 00:24:12;;;;;;;2.55;1.20;;;17.50;99.90;;;;;;4874930;29;19923;-76
2023/09/13 00:26:37;;;;;;;1.38;0.70;;;17.60;99.90;;;;;;4875294;29;20053;-76
2023/09/13 00:29:03;;;;;;;;;;;17.50;99.90;;;;;;4876212;29;20072;-76
2023/09/13 00:31:28;;;;;;;4.05;1.05;;;17.40;99.90;;;;;;4876645;29;21161;-76
2023/09/13 00:33:54;;;;;;;;;;;17.40;99.90;;;;;;4861236;29;20049;-76
2023/09/13 00:36:20;;;;;;;1.92;0.90;;;17.40;99.90;;;;;;4861794;29;19972;-76
2023/09/13 00:38:45;;;;;;;;;;;17.40;99.90;;;;;;4859559;29;20052;-76
2023/09/13 00:41:11;;;;;;;2.95;1.02;;;17.40;99.90;;;;;;4877262;29;20435;-76
2023/09/13 00:43:36;;;;;;;;;;;17.30;99.90;;;;;;4877362;29;20053;-76
2023/09/13 00:46:03;;;;;;;1.15;0.55;;;17.30;99.90;;;;;;4877047;29;19923;-76
2023/09/13 00:48:31;;;;;;;2.85;0.85;;;17.30;99.90;;;;;;4877242;29;20404;-76
2023/09/13 00:50:58;;;;;;;2.03;0.90;;;17.20;99.90;;;;;;4877053;29;20408;-76
2023/09/13 00:53:26;;;;;;;0.98;0.52;;;17.20;99.90;;;;;;4877190;29;20128;-76
2023/09/13 00:55:53;;;;;;;1.60;0.70;;;17.20;99.90;;;;;;4876657;29;20068;-76
2023/09/13 00:58:19;;;;;;;2.22;0.90;;;17.20;99.90;;;;;;4876862;29;20049;-76
2023/09/13 01:00:45;;;;;;;;;;;17.10;99.90;;;;;;4877421;29;20045;-76
2023/09/13 01:03:12;;;;;;;4.03;1.13;;;17.00;99.90;;;;;;4876783;29;20283;-76
2023/09/13 01:05:38;;;;;;;1.42;0.70;;;17.00;99.90;;;;;;4876334;29;20460;-76
2023/09/13 01:08:04;;;;;;;;;;;17.00;99.90;;;;;;4876988;29;20076;-76
2023/09/13 01:10:29;;;;;;;0.77;0.50;;;17.00;99.90;;;;;;4876925;29;20006;-76
2023/09/13 01:12:55;;;;;;;1.20;0.60;;;17.00;99.90;;;;;;4876395;29;20488;-76
2023/09/13 01:15:23;;;;;;;;;;;16.90;99.90;;;;;;4877341;29;20119;-76
2023/09/13 01:18:13;;;;;;;3.45;0.75;;;16.90;99.90;;;;;;4874846;29;19923;-76
2023/09/13 01:21:06;;;;;;;1.50;0.70;;;16.90;99.90;;;;;;4876227;29;20112;-76
2023/09/13 01:24:04;;;;;;;2.30;0.90;;;16.90;99.90;;;;;;4848748;29;20389;-76
2023/09/13 01:26:45;;;;;;;2.53;0.95;;;16.80;99.90;;;;;;4875574;29;20041;-76
2023/09/13 01:29:16;;;;;;;2.30;1.08;;;16.80;99.90;;;;;;4874847;29;20049;-76
2023/09/13 01:31:43;;;;;;;2.50;0.70;;;16.80;99.90;;;;;;4875600;29;20057;-76
2023/09/13 01:34:10;;;;;;;2.10;0.88;;;16.80;99.90;;;;;;4874677;29;20040;-76
2023/09/13 01:36:37;;;;;;;1.63;1.40;;;16.80;99.90;;;;;;4874154;29;20056;-76
2023/09/13 01:39:04;;;;;;;1.95;0.95;;;16.80;99.90;;;;;;4874307;29;20064;-76
2023/09/13 01:42:00;;;;;;;2.00;0.60;;;16.80;99.90;;;;;;4860490;29;21780;-76
2023/09/13 01:44:27;;;;;;;1.75;0.70;;;16.80;99.90;;;;;;4874876;29;20048;-76
2023/09/13 01:46:54;;;;;;;1.50;0.60;;;16.80;99.90;;;;;;4859801;29;20048;-76
2023/09/13 01:49:21;;;;;;;1.88;0.98;;;16.80;99.90;;;;;;4876078;29;20077;-76
2023/09/13 01:51:48;;;;;;;1.20;0.60;;;16.80;99.90;;;;;;4876084;29;20053;-76
2023/09/13 01:54:17;;;;;;;3.30;0.70;;;16.80;99.90;;;;;;4875255;29;20089;-76
2023/09/13 01:56:43;;;;;;;2.67;0.80;;;16.80;99.90;;;;;;4876042;29;20049;-76
2023/09/13 01:59:08;;;;;;;;;;;16.80;99.90;;;;;;4860913;29;20045;-76
2023/09/13 02:01:34;;;;;;;2.33;0.90;;;16.80;99.90;;;;;;4874690;29;19927;-76
2023/09/13 02:03:59;;;;;;;;;;;16.80;99.90;;;;;;4875711;29;20093;-76
2023/09/13 02:06:25;;;;;;;3.78;0.85;;;16.80;99.90;;;;;;4860480;29;19998;-76
2023/09/13 02:08:51;;;;;;;1.92;0.60;;;16.80;99.90;;;;;;4876734;29;20060;-76
2023/09/13 02:11:17;;;;;;;2.35;0.88;;;16.80;99.90;;;;;;4874823;29;20049;-76
2023/09/13 02:13:42;;;;;;;1.40;0.80;;;16.80;99.90;;;;;;4870935;29;20052;-76
2023/09/13 02:16:08;;;;;;;1.92;0.75;;;16.80;99.90;;;;;;4876282;29;20400;-76
2023/09/13 02:18:34;;;;;;;1.40;0.70;;;16.70;99.90;;;;;;4876222;29;20118;-76
2023/09/13 02:20:59;;;;;;;;;;;16.70;99.90;;;;;;4876310;29;20409;-76
2023/09/13 02:23:25;;;;;;;3.97;1.05;;;16.80;99.90;;;;;;4875916;29;19923;-76
2023/09/13 02:25:51;;;;;;;2.35;0.90;;;16.80;99.90;;;;;;4875780;29;20056;-76
2023/09/13 02:28:17;;;;;;;2.20;0.98;;;16.80;99.90;;;;;;4875212;29;20072;-76
2023/09/13 02:30:46;;;;;;;1.70;0.80;;;16.70;99.90;;;;;;4875173;29;20104;-76
2023/09/13 02:33:12;;;;;;;4.10;0.90;;;16.80;99.90;;;;;;4874547;29;20049;-76
2023/09/13 02:35:37;;;;;;;;;;;16.70;99.90;;;;;;4875799;29;20177;-76
2023/09/13 02:38:03;;;;;;;2.72;0.90;;;16.70;99.90;;;;;;4875349;29;19928;-76
2023/09/13 02:40:29;;;;;;;;;;;16.80;99.90;;;;;;4874607;29;20045;-76
2023/09/13 02:42:55;;;;;;;2.65;0.80;;;16.70;99.90;;;;;;4859757;29;19919;-76
2023/09/13 02:45:20;;;;;;;3.05;1.10;;;16.70;99.90;;;;;;4874408;29;20045;-77
2023/09/13 02:47:46;;;;;;;2.17;0.80;;;16.80;99.90;;;;;;4875608;29;20056;-77
2023/09/13 02:50:12;;;;;;;2.33;0.90;;;16.80;99.90;;;;;;4877590;29;20109;-77
2023/09/13 02:52:37;;;;;;;;;;;16.80;99.90;;;;;;4878546;29;20148;-77
2023/09/13 02:55:07;;;;;;;2.72;1.27;;;16.80;99.90;;;;;;4877580;29;20034;-77
2023/09/13 02:57:33;;;;;;;1.60;0.80;;;16.80;99.90;;;;;;4861872;29;20081;-77
2023/09/13 02:59:58;;;;;;;;;;;16.80;99.90;;;;;;4877894;29;20041;-77
2023/09/13 03:02:24;;;;;;;2.83;1.00;;;16.80;99.90;;;;;;4878978;29;20336;-77
2023/09/13 03:04:51;;;;;;;;;;;16.80;99.90;;;;;;4878293;29;20049;-77
2023/09/13 03:07:17;;;;;;;3.17;1.10;;;16.80;99.90;;;;;;4878288;29;19939;-77
2023/09/13 03:09:44;;;;;;;2.75;0.90;;;16.80;99.90;;;;;;4878707;29;20403;-77
2023/09/13 03:12:10;;;;;;;3.53;0.82;;;16.80;99.90;;;;;;4878273;29;20408;-78
2023/09/13 03:14:36;;;;;;;;;;;16.80;99.90;;;;;;4863551;29;20033;-77
2023/09/13 03:17:02;;;;;;;3.85;1.15;;;16.80;99.90;;;;;;4877034;29;19924;-77
2023/09/13 03:19:30;;;;;;;2.85;0.98;;;16.80;99.90;;;;;;4878130;29;20043;-77
2023/09/13 03:21:56;;;;;;;3.25;0.90;;;16.80;99.90;;;;;;4878179;29;20075;-77
2023/09/13 03:24:22;;;;;;;;;;;16.80;99.90;;;;;;4879507;29;20469;-77
2023/09/13 03:26:47;;;;;;;2.33;0.80;;;16.70;99.90;;;;;;4878803;29;19995;-77
2023/09/13 03:29:13;;;;;;;2.33;0.90;;;16.80;99.90;;;;;;4877386;29;20067;-77
2023/09/13 03:31:39;;;;;;;3.25;1.10;;;16.70;99.90;;;;;;4892764;29;20059;-78
2023/09/13 03:34:04;;;;;;;4.07;0.93;;;16.70;99.90;;;;;;4872548;29;20109;-78
2023/09/13 03:36:30;;;;;;;2.58;0.88;;;16.70;99.90;;;;;;4876076;29;20068;-77
2023/09/13 03:38:56;;;;;;;2.08;1.15;;;16.70;99.90;;;;;;4877815;29;20041;-77
2023/09/13 03:41:23;;;;;;;1.65;0.73;;;16.70;99.90;;;;;;4862879;29;20131;-77
2023/09/13 03:43:49;;;;;;;1.88;0.80;;;16.70;99.90;;;;;;4877754;29;20041;-77
2023/09/13 03:46:15;;;;;;;1.58;0.63;;;16.60;99.90;;;;;;4877414;29;20080;-77
2023/09/13 03:48:41;;;;;;;2.92;0.90;;;16.60;99.90;;;;;;4877418;29;20069;-78
2023/09/13 03:51:07;;;;;;;;;;;16.60;99.90;;;;;;4879073;29;20045;-78
2023/09/13 03:53:33;;;;;;;4.40;1.10;;;16.60;99.90;;;;;;4878267;29;19923;-78
2023/09/13 03:55:59;;;;;;;4.70;1.20;;;16.60;99.90;;;;;;4877141;29;20139;-77
2023/09/13 03:58:25;;;;;;;2.67;0.95;;;16.50;99.90;;;;;;4862484;29;20400;-78
2023/09/13 04:00:51;;;;;;;;;;;16.50;99.90;;;;;;4860289;29;20052;-78
2023/09/13 04:03:19;;;;;;;3.72;1.00;;;16.50;99.90;;;;;;4862164;29;19984;-78
2023/09/13 04:05:45;;;;;;;4.57;1.17;;;16.50;99.90;;;;;;4875610;29;20057;-78
2023/09/13 04:08:10;;;;;;;4.40;1.25;;;16.40;99.90;;;;;;4878335;29;20129;-77
2023/09/13 04:10:36;;;;;;;;;;;16.40;99.90;;;;;;4862010;29;20076;-77
2023/09/13 04:13:02;;;;;;;2.67;1.42;;;16.40;99.90;;;;;;4877341;29;19959;-77
2023/09/13 04:15:28;;;;;;;2.08;0.93;;;16.30;99.90;;;;;;4860318;29;20064;-77
2023/09/13 04:17:53;;;;;;;3.33;0.95;;;16.20;99.90;;;;;;4875980;29;20045;-77
2023/09/13 04:20:20;;;;;;;3.85;1.50;;;16.10;99.90;;;;;;4844236;29;20044;-77
2023/09/13 04:22:46;;;;;;;4.18;0.80;;;16.00;99.90;;;;;;4851574;29;20045;-77
2023/09/13 04:25:11;;;;;;;1.77;0.70;;;16.00;99.90;;;;;;4874723;29;20084;-77
2023/09/13 04:27:37;;;;;;;4.05;1.33;;;15.90;99.90;;;;;;4873883;29;20068;-77
2023/09/13 04:30:03;;;;;;;3.72;0.90;;;15.80;99.90;;;;;;4859124;29;20501;-77
2023/09/13 04:32:29;;;;;;;1.67;0.90;;;15.80;99.90;;;;;;4858625;29;20109;-78
2023/09/13 04:34:55;;;;;;;2.92;0.90;;;15.70;99.90;;;;;;4854333;29;20405;-78
2023/09/13 04:37:21;;;;;;;2.00;0.88;;;15.60;99.90;;;;;;4873907;29;20040;-78
2023/09/13 04:39:47;;;;;;;3.45;1.23;;;15.60;99.90;;;;;;4875920;29;20541;-77
2023/09/13 04:42:14;;;;;;;3.17;0.90;;;15.50;99.90;;;;;;4875531;29;20044;-76
2023/09/13 04:44:39;;;;;;;2.45;1.10;;;15.50;99.90;;;;;;4874895;29;20085;-76
2023/09/13 04:47:05;;;;;;;2.88;0.80;;;15.40;99.90;;;;;;4860867;29;20083;-76
2023/09/13 04:49:31;;;;;;;2.72;0.98;;;15.40;99.90;;;;;;4875153;29;20405;-76
2023/09/13 04:51:57;;;;;;;2.03;0.98;;;15.40;99.90;;;;;;4877439;29;20079;-76
2023/09/13 04:54:23;;;;;;;2.95;1.05;;;15.40;99.90;;;;;;4875357;29;20052;-76
2023/09/13 04:56:50;;;;;;;2.42;1.08;;;15.30;99.90;;;;;;4874703;29;20041;-77
2023/09/13 04:59:16;;;;;;;2.53;1.00;;;15.20;99.90;;;;;;4875814;29;20127;-77
2023/09/13 05:01:42;;;;;;;2.00;0.98;;;15.10;99.90;;;;;;4862948;29;20049;-77
2023/09/13 05:04:08;;;;;;;3.97;1.27;;;15.00;99.90;;;;;;4861611;29;20064;-77
2023/09/13 05:06:33;;;;;;;1.95;0.90;;;15.00;99.90;;;;;;4875077;29;20059;-76
2023/09/13 05:08:59;;;;;;;4.78;1.20;;;15.00;99.90;;;;;;4858531;29;20465;-76
2023/09/13 05:11:25;;;;;;;3.53;1.60;;;14.90;99.90;;;;;;4856942;29;20055;-76
2023/09/13 05:14:07;;;;;;;3.75;1.30;;;14.90;99.90;;;;;;4858071;29;20072;-76
2023/09/13 05:16:32;;;;;;;2.83;1.35;;;14.70;99.90;;;;;;4871853;29;20136;-76
2023/09/13 05:18:58;;;;;;;4.47;1.20;;;14.70;99.90;;;;;;4874877;29;20128;-76
2023/09/13 05:21:24;;;;;;;3.00;1.15;;;14.70;99.90;;;;;;4875638;29;20147;-76
2023/09/13 05:23:49;;;;;;;1.80;0.90;;;14.80;99.90;;;;;;4875303;29;20069;-76
2023/09/13 05:26:15;;;;;;;1.98;0.93;;;14.80;99.90;;;;;;4875723;29;20385;-76
2023/09/13 05:28:41;;;;;;;2.75;1.10;;;14.70;99.90;;;;;;4870693;29;20125;-76
2023/09/13 05:31:06;;;;;;;2.67;1.05;;;14.60;99.90;;;;;;4873448;29;20053;-77
2023/09/13 05:33:33;;;;;;;1.90;0.90;;;14.80;99.90;;;;;;4874062;29;20045;-76
2023/09/13 05:35:59;;;;;;;5.03;1.45;;;14.70;99.90;;;;;;4874282;29;20101;-77
2023/09/13 05:38:25;;;;;;;2.92;1.38;;;14.60;99.90;;;;;;4842904;29;20041;-77
2023/09/13 05:40:51;;;;;;;;;;;14.70;99.90;;;;;;4873939;29;20080;-77
2023/09/13 05:43:17;;;;;;;4.57;1.25;;;14.60;99.90;;;;;;4862847;29;19973;-78
2023/09/13 05:45:42;;;;;;;4.15;1.35;;;14.50;99.90;;;;;;4874883;29;20057;-76
2023/09/13 05:48:08;;;;;;;4.28;1.40;;;14.50;99.90;;;;;;4829871;29;20045;-77
2023/09/13 05:50:34;;;;;;;4.40;1.73;;;14.70;99.90;;;;;;4857458;29;20053;-77
2023/09/13 05:53:00;;;;;;;2.50;1.13;;;14.60;99.90;;;;;;4873525;29;20049;-77
2023/09/13 05:55:25;;;;;;;4.07;1.30;;;14.50;99.90;;;;;;4875161;29;20049;-77
2023/09/13 05:57:51;;;;;;;3.85;1.40;;;14.60;99.90;;;;;;4856764;29;20048;-77
2023/09/13 06:00:17;;;;;;;6.40;1.52;;;14.60;99.90;;;;;;4875653;29;20472;-77
2023/09/13 06:02:43;;;;;;;5.72;1.52;;;14.60;99.90;;;;;;4871691;29;20048;-78
2023/09/13 06:05:09;;;;;;;6.75;2.03;;;14.40;99.90;;;;;;4868851;29;20045;-77
2023/09/13 06:07:36;;;;;;;5.45;1.85;;;14.40;99.90;;;;;;4871420;29;20148;-77
2023/09/13 06:10:03;;;;;;;1.90;1.10;;;14.40;99.90;;;;;;4874783;29;20109;-77
2023/09/13 06:12:32;;;;;;;4.43;1.63;;;14.30;99.90;;;;;;4870224;29;20049;-77
2023/09/13 06:14:59;;;;;;;6.05;1.63;;;14.40;99.90;;;;;;4872358;29;20037;-77
2023/09/13 06:17:25;;;;;;;4.32;1.70;;;14.30;99.90;;;;;;4856994;29;20049;-77
2023/09/13 06:19:51;;;;;;;;;;;14.40;99.90;;;;;;4872796;29;20045;-77
2023/09/13 06:22:17;;;;;;;2.92;1.42;;;14.30;99.90;;;;;;4872561;29;19935;-77
2023/09/13 06:24:44;;;;;;;4.00;1.50;;;14.40;99.90;;;;;;4870347;29;20033;-77
2023/09/13 06:27:10;;;;;;;6.13;1.90;;;14.40;99.90;;;;;;4872340;29;20089;-78
2023/09/13 06:29:38;;;;;;;6.07;2.00;;;14.30;99.90;;;;;;4857472;29;20093;-78
2023/09/13 06:32:04;;;;;;;4.97;1.85;;;14.40;99.90;;;;;;4875037;29;20049;-78
2023/09/13 06:34:30;;;;;;;4.65;1.80;;;14.40;99.90;;;;;;4875006;29;20473;-78
2023/09/13 06:36:56;;;;;;;7.50;2.35;;;14.30;99.90;;;;;;4874196;29;20041;-78
2023/09/13 06:39:22;;;;;;;4.95;1.83;;;14.30;99.90;;;;;;4843210;29;20041;-89
2023/09/13 06:41:48;;;;;;;4.97;1.73;;;14.30;99.90;;;;;;4844491;29;20045;-77
2023/09/13 06:44:14;;;;;;;6.93;2.15;;;14.30;99.90;;;;;;4872430;29;20048;-77
2023/09/13 06:46:41;;;;;;;6.88;2.13;;;14.30;99.90;;;;;;4858478;29;20049;-77
2023/09/13 06:49:07;;;;;;;4.00;1.55;;;14.50;99.90;;;;;;4874676;29;20504;-78
2023/09/13 06:51:32;;;;;;;5.43;1.70;;;14.40;99.90;;;;;;4872485;29;20075;-78
2023/09/13 06:53:59;;;;;;;5.55;1.88;;;14.50;99.90;;;;;;4875525;29;20105;-78
2023/09/13 06:56:25;;;;;;;6.38;1.73;;;14.40;99.90;;;;;;4874052;29;20061;-77
2023/09/13 06:58:52;;;;;;;;;;;14.60;99.90;;;;;;4874179;29;20472;-78
2023/09/13 07:01:17;;;;;;;7.78;1.92;;;14.60;99.90;;;;;;4871714;29;19972;-76
2023/09/13 07:03:43;;;;;;;6.55;1.85;;;14.50;99.90;;;;;;4874554;29;20053;-77
2023/09/13 07:06:11;;;;;;;5.72;2.03;;;14.60;99.90;;;;;;4870186;29;20049;-77
2023/09/13 07:08:36;;;;;;;5.28;1.85;;;14.50;99.90;;;;;;4868475;29;20105;-77
2023/09/13 07:11:02;;;;;;;5.45;1.95;;;14.50;99.90;;;;;;4871790;29;20054;-78
2023/09/13 07:13:28;;;;;;;4.70;1.45;;;14.70;99.90;;;;;;4876067;29;20037;-77
2023/09/13 07:15:54;;;;;;;3.33;1.38;;;14.70;99.90;;;;;;4874104;29;20045;-77
2023/09/13 07:18:19;;;;;;;2.85;1.20;;;14.70;99.90;;;;;;4873667;29;20049;-76
2023/09/13 07:20:45;;;;;;;4.35;1.30;;;14.80;99.90;;;;;;4845960;29;20569;-77
2023/09/13 07:23:11;;;;;;;3.03;1.35;;;14.80;99.90;;;;;;4875383;29;20124;-77
2023/09/13 07:25:36;;;;;;;3.35;1.00;;;14.70;99.90;;;;;;4858720;29;20128;-77
2023/09/13 07:28:02;;;;;;;5.10;1.25;;;14.70;99.90;;;;;;4858478;29;20053;-78
2023/09/13 07:30:28;;;;;;;4.60;1.20;;;14.80;99.90;;;;;;4874423;29;20049;-77
2023/09/13 07:32:54;;;;;;;3.65;1.15;;;14.80;99.90;;;;;;4872832;29;20113;-78
2023/09/13 07:35:20;;;;;;;7.88;1.70;;;14.80;99.90;;;;;;4856560;29;20133;-76
2023/09/13 07:37:47;;;;;;;4.07;1.27;;;14.80;99.90;;;;;;4870893;29;20053;-76
2023/09/13 07:40:12;;;;;;;4.90;1.63;;;14.80;99.90;;;;;;4878724;29;20037;-77
2023/09/13 07:42:38;;;;;;;5.00;1.50;;;14.80;99.90;;;;;;4877446;29;20370;-77
2023/09/13 07:45:05;;;;;;;4.03;1.40;;;14.80;99.90;;;;;;4879079;29;20048;-77
2023/09/13 07:47:31;;;;;;;2.58;1.10;;;14.80;99.90;;;;;;4877769;29;20057;-77
2023/09/13 07:50:00;;;;;;;3.28;0.75;;;14.80;99.90;;;;;;4878680;29;20072;-77
2023/09/13 07:52:26;;;;;;;3.35;1.10;;;14.90;99.90;;;;;;4878093;29;20060;-77
2023/09/13 07:54:52;;;;;;;;;;;14.90;99.90;;;;;;4879768;29;20041;-77
2023/09/13 07:57:18;;;;;;;3.50;1.30;;;14.90;99.90;;;;;;4879022;29;20358;-77
2023/09/13 07:59:44;;;;;;;;;;;14.90;99.90;;;;;;4879285;29;20493;-77
2023/09/13 08:02:09;;;;;;;3.30;1.13;;;15.00;99.90;;;;;;4879309;29;20062;-77
2023/09/13 08:04:35;;;;;;;2.55;1.20;;;15.00;99.90;;;;;;4863324;29;20535;-76
2023/09/13 08:07:02;;;;;;;3.10;1.10;;;15.00;99.90;;;;;;4863565;29;20052;-77
2023/09/13 08:09:27;;;;;;;3.25;1.10;;;15.00;99.90;;;;;;4878783;29;20522;-78
2023/09/13 08:11:53;;;;;;;2.92;1.00;;;15.00;99.90;;;;;;4878525;29;20056;-77
2023/09/13 08:14:19;;;;;;;2.15;1.05;;;15.00;99.90;;;;;;4863122;29;20037;-77
2023/09/13 08:16:45;;;;;;;2.45;0.85;;;15.10;99.90;;;;;;4878418;29;20113;-77
2023/09/13 08:19:11;;;;;;;2.80;0.93;;;15.20;99.90;;;;;;4865168;29;20063;-77
2023/09/13 08:21:37;;;;;;;;;;;15.30;99.90;;;;;;4879024;29;20131;-77
2023/09/13 08:24:04;;;;;;;4.47;1.50;;;15.30;99.90;;;;;;4878252;29;20364;-76
2023/09/13 08:26:32;;;;;;;;;;;15.30;99.90;;;;;;4878323;29;20308;-77
2023/09/13 08:28:58;;;;;;;3.47;1.33;;;15.40;99.90;;;;;;4877956;29;19924;-77
2023/09/13 08:31:25;;;;;;;5.28;1.50;;;15.50;99.90;;;;;;4878321;29;20057;-77
2023/09/13 08:33:54;;;;;;;5.63;1.50;;;15.60;99.90;;;;;;4877992;29;20049;-76
2023/09/13 08:36:21;;;;;;;3.33;1.25;;;15.60;99.90;;;;;;4877815;29;20531;-76
2023/09/13 08:38:46;;;;;;;3.72;1.33;;;15.70;99.90;;;;;;4877910;29;20109;-77
2023/09/13 08:41:14;;;;;;;5.35;2.20;;;15.70;99.90;;;;;;4877603;29;20132;-77
2023/09/13 08:43:41;;;;;;;3.47;1.30;;;15.70;99.90;;;;;;4862319;29;20048;-77
2023/09/13 08:46:08;;;;;;;5.35;1.70;;;15.80;99.90;;;;;;4877644;29;20052;-77
2023/09/13 08:48:34;;;;;;;5.40;1.58;;;15.80;99.90;;;;;;4892568;29;20439;-76
2023/09/13 08:51:04;;;;;;;5.90;1.77;;;15.90;99.90;;;;;;4895841;29;20060;-77
2023/09/13 08:53:31;;;;;;;3.78;1.50;;;15.90;99.90;;;;;;4895761;29;20048;-77
2023/09/13 08:55:59;;;;;;;3.92;1.25;;;16.00;99.90;;;;;;4896074;29;20040;-77
2023/09/13 08:58:26;;;;;;;3.78;1.48;;;16.10;99.90;;;;;;4895909;29;20400;-77
2023/09/13 09:00:53;;;;;;;4.80;1.40;;;16.20;99.90;;;;;;4884346;29;20062;-77
2023/09/13 09:03:23;;;;;;;2.30;1.10;;;16.10;99.90;;;;;;4895817;29;20215;-77
2023/09/13 09:05:50;;;;;;;3.55;1.20;;;16.20;99.90;;;;;;4876934;29;20778;-78
2023/09/13 09:08:16;;;;;;;3.30;1.40;;;16.00;99.90;;;;;;4877016;29;20044;-77
2023/09/13 09:10:42;;;;;;;;;;;15.90;99.90;;;;;;4877341;29;20055;-77
2023/09/13 09:13:10;;;;;;;4.13;1.52;;;15.90;99.90;;;;;;4876718;29;19931;-77
2023/09/13 09:15:38;;;;;;;5.25;1.23;;;15.80;99.90;;;;;;4861194;29;20063;-77
2023/09/13 09:18:08;;;;;;;4.60;1.60;;;15.80;99.90;;;;;;4876886;29;20152;-76
2023/09/13 09:20:37;;;;;;;3.53;1.70;;;15.70;99.90;;;;;;4876666;29;20044;-77
2023/09/13 09:23:06;;;;;;;4.90;1.70;;;15.60;99.90;;;;;;4876995;29;20088;-76
2023/09/13 09:25:31;;;;;;;5.25;2.00;;;15.60;99.90;;;;;;4876672;29;20052;-76
2023/09/13 09:27:57;;;;;;;4.50;1.55;;;15.60;99.90;;;;;;4876084;29;20053;-78
2023/09/13 09:30:33;;;;;;;5.78;1.90;;;15.60;99.90;;;;;;4861400;29;20144;-77
2023/09/13 09:33:03;;;;;;;4.73;1.50;;;15.60;99.90;;;;;;4876601;29;20105;-77
2023/09/13 09:35:30;;;;;;;4.28;1.50;;;15.80;99.90;;;;;;4861171;29;20516;-77
2023/09/13 09:37:55;;;;;;;5.45;1.80;;;15.80;99.90;;;;;;4861092;29;20041;-77
2023/09/13 09:40:21;;;;;;;3.92;1.50;;;15.90;99.90;;;;;;4861084;29;20059;-78
2023/09/13 09:42:54;;;;;;;4.75;1.80;;;15.90;99.90;;;;;;4876335;29;20053;-77
2023/09/13 09:45:24;;;;;;;3.92;1.60;;;15.90;99.90;;;;;;4876364;29;20047;-78
2023/09/13 09:47:50;;;;;;;3.75;1.67;;;16.00;99.90;;;;;;4876240;29;20053;-77
2023/09/13 09:50:17;;;;;;;5.38;1.67;;;16.00;99.90;;;;;;4876283;29;20048;-77
2023/09/13 09:52:48;;;;;;;3.70;1.58;;;16.00;99.90;;;;;;4876116;29;20052;-77
2023/09/13 09:55:15;;;;;;;5.55;1.90;;;16.00;99.90;;;;;;4861394;29;20048;-77
2023/09/13 09:57:49;;;;;;;4.35;1.65;;;16.00;99.90;;;;;;4875901;29;20709;-77
2023/09/13 10:00:15;;;;;;;3.90;1.50;;;16.10;99.90;;;;;;4875204;29;20449;-77
2023/09/13 10:02:44;;;;;;;2.17;1.20;;;16.10;99.90;;;;;;4860711;29;20400;-77
2023/09/13 10:05:09;;;;;;;3.03;1.58;;;16.30;99.90;;;;;;4875545;29;20089;-77
2023/09/13 10:07:42;;;;;;;4.80;1.83;;;16.30;1.00;;;;;;4875970;29;20163;-77
2023/09/13 10:10:11;;;;;;;3.20;2.05;;;16.30;26.50;;;;;;4876004;29;20045;-77
2023/09/13 10:12:44;;;;;;;4.80;2.10;;;16.40;1.00;;;;;;4875580;29;20056;-77
2023/09/13 10:15:10;;;;;;;3.80;1.98;;;16.40;99.90;;;;;;4875733;29;20122;-76
2023/09/13 10:17:38;;;;;;;;;;;16.50;97.50;;;;;;4875849;29;20048;-76
2023/09/13 10:20:06;;;;;;;3.92;2.05;;;16.60;99.90;;;;;;4875776;29;19927;-77
2023/09/13 10:22:35;;;;;;;3.55;1.88;;;16.60;99.90;;;;;;4860506;29;20067;-76
2023/09/13 10:25:05;;;;;;;2.50;1.65;;;16.70;49.60;;;;;;4875799;29;20053;-77
2023/09/13 10:27:33;;;;;;;2.47;1.40;;;16.80;99.90;;;;;;4859912;29;20049;-77
2023/09/13 10:30:05;;;;;;;2.72;1.75;;;16.90;99.90;;;;;;4875535;29;20065;-76
2023/09/13 10:32:42;;;;;;;3.53;1.80;;;17.00;99.90;;;;;;4875497;29;20195;-77
2023/09/13 10:35:11;;;;;;;5.47;2.10;;;17.20;99.90;;;;;;4875456;29;20144;-77
2023/09/13 10:37:46;;;;;;;4.05;1.90;;;17.40;99.90;;;;;;4875527;29;20552;-77
2023/09/13 10:40:23;;;;;;;2.47;1.83;;;17.60;99.90;;;;;;4875528;29;20037;-77
2023/09/13 10:42:49;;;;;;;2.85;1.88;;;17.70;5.20;;;;;;4875639;29;20080;-76
2023/09/13 10:45:18;;;;;;;3.67;1.60;;;17.60;8.20;;;;;;4875652;29;20124;-76
2023/09/13 10:47:48;;;;;;;2.63;1.52;;;17.50;1.00;;;;;;4875597;29;20148;-77
2023/09/13 10:50:15;;;;;;;2.85;1.27;;;17.90;1.00;;;;;;4875660;29;20071;-76
2023/09/13 10:52:43;;;;;;;2.72;1.45;;;18.20;1.00;;;;;;4875407;29;20057;-76
2023/09/13 10:55:10;;;;;;;3.97;1.80;;;18.40;99.90;;;;;;4875207;29;20044;-77
2023/09/13 10:57:39;;;;;;;3.08;1.65;;;18.40;99.90;;;;;;4875219;29;20469;-77
2023/09/13 11:00:11;;;;;;;2.97;1.65;;;18.20;99.90;;;;;;4875356;29;20053;-77
2023/09/13 11:02:43;;;;;;;2.90;1.55;;;18.30;94.60;;;;;;4875280;29;20055;-77
2023/09/13 11:05:10;;;;;;;2.78;1.30;;;18.20;99.90;;;;;;4860560;29;20131;-77
2023/09/13 11:07:49;;;;;;;3.75;1.40;;;18.10;99.90;;;;;;4875599;29;20429;-77
2023/09/13 11:10:20;;;;;;;3.20;1.33;;;17.90;99.90;;;;;;4859973;29;20048;-76
2023/09/13 11:12:50;;;;;;;3.05;1.35;;;18.00;99.90;;;;;;4878790;29;20055;-76
2023/09/13 11:15:26;;;;;;;2.67;1.30;;;18.10;1.00;;;;;;4878926;29;20128;-76
2023/09/13 11:17:56;;;;;;;2.70;1.20;;;18.10;1.00;;;;;;4866313;29;20105;-76
2023/09/13 11:20:36;;;;;;;2.15;0.90;;;18.00;99.90;;;;;;4863323;29;20365;-76
2023/09/13 11:23:14;;;;;;;2.08;0.80;;;18.10;1.00;;;;;;4866677;29;20056;-77
2023/09/13 11:25:49;;;;;;;1.27;0.80;;;18.40;99.90;;;;;;4878693;29;20453;-77
2023/09/13 11:28:36;;;;;;;2.03;0.90;;;18.80;99.90;;;;;;4878338;29;20416;-76
2023/09/13 11:31:07;;;;;;;2.45;1.25;;;19.10;99.90;;;;;;4878395;29;20096;-77
2023/09/13 11:33:55;;;;;;;1.92;0.93;;;19.20;39.50;;;;;;4878307;29;20045;-76
2023/09/13 11:36:23;;;;;;;1.58;0.90;;;19.40;67.70;;;;;;4878160;29;20044;-76
2023/09/13 11:39:01;;;;;;;1.63;0.88;;;19.70;1.00;;;;;;4878400;29;20056;-76
2023/09/13 11:41:27;;;;;;;3.42;1.17;;;19.60;99.90;;;;;;4862719;29;20120;-76
2023/09/13 11:43:53;;;;;;;;;;;19.30;99.90;;;;;;4863376;29;20144;-76
2023/09/13 11:46:19;;;;;;;2.53;0.93;;;19.10;1.00;;;;;;4877987;29;19983;-77
2023/09/13 11:48:48;;;;;;;;;;;18.80;1.00;;;;;;4862906;29;20063;-77
2023/09/13 11:51:16;;;;;;;3.00;1.00;;;18.30;99.90;;;;;;4878202;29;19927;-76
2023/09/13 11:53:42;;;;;;;2.10;0.80;;;18.00;99.90;;;;;;4877990;29;20056;-76
2023/09/13 11:56:38;;;;;;;2.67;1.10;;;17.70;1.00;;;;;;4878028;29;20517;-76
2023/09/13 11:59:04;;;;;;;2.67;1.02;;;17.50;1.00;;;;;;4868413;29;20121;-76
2023/09/13 12:01:30;;;;;;;;;;;17.40;99.90;;;;;;4878545;29;20080;-76
2023/09/13 12:03:58;;;;;;;3.30;0.88;;;17.40;99.90;;;;;;4877781;29;19923;-77
2023/09/13 12:06:25;;;;;;;3.13;1.00;;;17.40;99.90;;;;;;4877906;29;20048;-77
2023/09/13 12:08:55;;;;;;;2.75;0.95;;;17.40;1.00;;;;;;4877647;29;20504;-76
2023/09/13 12:11:22;;;;;;;4.40;1.10;;;17.50;1.00;;;;;;4877975;29;20057;-76
2023/09/13 12:13:54;;;;;;;2.47;1.33;;;17.50;19.40;;;;;;4862263;29;20412;-76
2023/09/13 12:16:20;;;;;;;2.28;1.10;;;17.50;1.00;;;;;;4875329;29;20045;-76
2023/09/13 12:18:46;;;;;;;;;;;17.60;1.00;;;;;;4877065;29;20051;-76
2023/09/13 12:21:13;;;;;;;4.13;1.13;;;17.70;1.00;;;;;;4841670;29;20340;-76
2023/09/13 12:23:46;;;;;;;2.25;0.80;;;17.70;18.20;;;;;;4860589;29;20084;-76
2023/09/13 12:26:15;;;;;;;1.92;0.70;;;17.80;99.90;;;;;;4874659;29;20072;-76
2023/09/13 12:28:42;;;;;;;3.63;0.90;;;17.80;99.90;;;;;;4874827;29;20068;-76
2023/09/13 12:31:09;;;;;;;2.75;0.77;;;17.80;1.00;;;;;;4875374;29;20069;-76
2023/09/13 12:33:48;;;;;;;3.13;0.98;;;17.90;98.80;;;;;;4875494;29;20048;-75
2023/09/13 12:36:14;;;;;;;2.15;0.90;;;17.90;99.90;;;;;;4876370;29;20037;-75
2023/09/13 12:38:43;;;;;;;2.17;0.80;;;17.80;99.90;;;;;;4858992;29;20068;-76
2023/09/13 12:41:10;;;;;;;3.30;0.90;;;17.80;53.40;;;;;;4871600;29;20041;-76
2023/09/13 12:43:36;;;;;;;4.80;1.20;;;17.70;1.00;;;;;;4862930;29;20048;-75
2023/09/13 12:46:02;;;;;;;;;;;17.50;99.90;;;;;;4860467;29;20064;-76
2023/09/13 12:48:28;;;;;;;3.70;1.08;;;17.50;1.00;;;;;;4875389;29;19919;-76
2023/09/13 12:50:54;;;;;;;;;;;17.50;63.90;;;;;;4873414;29;20140;-76
2023/09/13 12:53:21;;;;;;;5.05;1.30;;;17.40;88.50;;;;;;4874617;29;20014;-76
2023/09/13 12:55:48;;;;;;;2.83;0.90;;;17.20;99.90;;;;;;4874591;29;20118;-76
2023/09/13 12:58:14;;;;;;;3.15;1.08;;;17.10;99.90;;;;;;4859869;29;20151;-76
2023/09/13 13:00:49;;;;;;;;;;;17.10;99.90;;;;;;4874829;29;20155;-75